ELDO2: Baron Fork, Eldon, OK

                                SHEF ID:       ELDO2     Baron Fork at Eldon, OK
STATION TYPE:

PRECIP STAGE STAGE(2) RIV-FLOW BAT-LOAD
in ft ft cfs volt
Ccp-Rev Ccp-Rev Ccp-Rev Ccp-Rev Ccp-Rev
(America/Chicago)
04/27 00:00 0.00 9.02 ---- 1891 12.63
04/27 01:00 0.00 9.00 ---- 1859 12.61
04/27 02:00 0.00 8.94 ---- 1766 12.60
04/27 03:00 0.00 8.91 ---- 1720 12.57
04/27 04:00 0.00 8.86 ---- 1645 12.56
04/27 05:00 0.00 8.83 ---- 1600 12.53
04/27 06:00 0.00 8.78 ---- 1526 12.53
04/27 07:00 0.00 8.72 ---- 1437 12.52
04/27 08:00 0.00 8.72 ---- 1437 12.52
04/27 09:00 0.00 8.69 ---- 1393 13.09
04/27 10:00 0.00 8.67 ---- 1364 13.39
04/27 11:00 0.00 8.62 ---- 1292 13.19
04/27 12:00 0.00 8.61 ---- 1278 13.05
04/27 13:00 0.00 8.58 ---- 1235 12.96
04/27 14:00 0.00 8.56 ---- 1207 12.93
04/27 15:00 0.00 8.55 ---- 1193 12.90
04/27 16:00 0.00 8.52 ---- 1152 12.88
04/27 17:00 0.00 8.50 ---- 1126 12.86
04/27 18:00 0.00 8.49 ---- 1118 12.86
04/27 19:00 0.00 8.47 ---- 1104 12.84
04/27 20:00 0.00 8.46 ---- 1097 12.74
04/27 21:00 0.00 8.43 ---- 1075 12.67
04/27 22:00 0.00 8.42 ---- 1068 12.65
04/27 23:00 0.00 8.40 ---- 1054 12.63
Data processed at Tue 28Apr2026 04:36 GMT

NOTICE: If you are parsing this page

Please convert to using our Data API. Starting early 2026 we will be migrating to: https://water.usace.army.mil with modern pages rendered in JavaScript. When this migration completes you will no longer be able to scrape this page! CWMSDataAPI (CDA)

Timeseries IDs (TSIDs)

TSIDs used from left to right in the data table
ELDN.Precip-Inc.Total.1Hour.1Hour.Ccp-Rev
ELDN.Stage.Inst.1Hour.0.Ccp-Rev
ELDN.Stage-Alt.Inst.1Hour.0.Ccp-Rev
ELDN.Flow.Inst.1Hour.0.Ccp-Rev
ELDN.Volt-Battery Load.Inst.1Hour.0.Ccp-Rev

                            

All information presented herein is the property of the government of the United States of America and may be revised or deleted at any time without prior notice. Dissemination of this information without the expressed written consent of the Public Affairs Office, Tulsa District U.S. Army Corps of Engineers is strictly prohibited. These data are gathered electronically and, as presented, have NOT undergone any form of quality control. These data are NOT guaranteed to be valid or correct.